CPR3 weather

Palmerston Airport
Palmerston, Ontario, Canada

Public forecast

Using degrees Celsius for public forecast. Weather courtesy of forecast.io.

METAR (pilot weather report)

Closest report is Waterloo Airport, 29.3 nm (54.3 km) SE. Retrieved 2019/09/19 06:00 UTC (35 seconds ago):

CYKF 190600Z AUTO 06003KT 9SM OVC230 12/12 A3026 RMK SLP249

TAF (pilot weather forecast)

Closest forecast is Waterloo Airport, 29.3 nm (54.3 km) SE. Retrieved 2019/09/19 02:39 UTC (3 hours ago):

TAF CYKF 190138Z 1902/1914 11005KT P6SM FEW240 PROB30 1909/1912 1SM BR RMK FCST BASED ON AUTO OBS. NXT FCST BY 190800Z